Time;durP1;ratioP1;P1;durP2;ratioP2;P2;SDS_P1;SDS_P2;PMS_P1;PMS_P2;Temp;Humidity;BMP_temperature;BMP_pressure;BME280_temperature;BME280_humidity;BME280_pressure;Samples;Min_cycle;Max_cycle;Signal;HPM_P1;HPM_P2
2022/03/10 00:00:01;;;;;;;8.87;7.33;;;5.80;99.90;;;;;;4987537;28;20226;-88
2022/03/10 00:02:28;;;;;;;9.27;7.90;;;5.70;99.90;;;;;;4989341;28;20237;-87
2022/03/10 00:04:55;;;;;;;8.97;7.57;;;5.60;99.90;;;;;;4988575;28;20209;-87
2022/03/10 00:07:21;;;;;;;11.27;8.37;;;5.50;99.90;;;;;;4988088;28;20210;-86
2022/03/10 00:09:48;;;;;;;8.77;7.87;;;5.60;99.90;;;;;;4988687;28;20214;-85
2022/03/10 00:12:15;;;;;;;10.97;8.77;;;5.50;99.90;;;;;;4989662;28;20206;-86
2022/03/10 00:14:43;;;;;;;10.07;8.70;;;5.60;99.90;;;;;;4993455;28;20267;-86
2022/03/10 00:17:09;;;;;;;8.63;7.70;;;5.60;99.90;;;;;;5007992;28;20201;-86
2022/03/10 00:19:36;;;;;;;9.77;7.97;;;5.60;99.90;;;;;;5008307;28;20617;-86
2022/03/10 00:22:03;;;;;;;11.57;8.67;;;5.60;99.90;;;;;;4998123;28;20236;-86
2022/03/10 00:24:30;;;;;;;9.47;8.20;;;5.60;99.90;;;;;;4988914;28;20202;-85
2022/03/10 00:26:56;;;;;;;10.57;8.30;;;5.60;99.90;;;;;;4988509;28;20434;-86
2022/03/10 00:29:23;;;;;;;10.30;8.40;;;5.60;99.90;;;;;;4988089;28;20392;-86
2022/03/10 00:31:51;;;;;;;10.27;8.33;;;5.60;99.90;;;;;;4989455;28;20263;-85
2022/03/10 00:34:18;;;;;;;10.90;8.03;;;5.50;99.90;;;;;;4988653;28;20283;-86
2022/03/10 00:36:45;;;;;;;11.93;8.80;;;5.40;99.90;;;;;;4981861;28;20217;-86
2022/03/10 00:39:12;;;;;;;9.17;8.20;;;5.50;99.90;;;;;;4987859;28;20259;-83
2022/03/10 00:41:39;;;;;;;10.13;8.17;;;5.30;99.90;;;;;;4985052;28;20229;-82
2022/03/10 00:44:06;;;;;;;10.20;7.93;;;5.30;99.90;;;;;;4984960;28;20674;-82
2022/03/10 00:46:33;;;;;;;10.73;8.13;;;5.30;99.90;;;;;;5003317;28;20254;-82
2022/03/10 00:49:00;;;;;;;9.27;7.30;;;5.30;99.90;;;;;;5003917;28;20558;-82
2022/03/10 00:51:27;;;;;;;12.17;8.27;;;5.20;99.90;;;;;;4994607;28;20264;-82
2022/03/10 00:53:54;;;;;;;10.10;8.40;;;5.10;99.90;;;;;;4978344;28;20570;-82
2022/03/10 00:56:20;;;;;;;9.50;7.73;;;5.10;99.90;;;;;;4983448;28;20604;-82
2022/03/10 00:58:47;;;;;;;10.77;8.27;;;5.10;99.90;;;;;;4984360;28;20221;-84
2022/03/10 01:01:14;;;;;;;9.70;7.67;;;5.00;99.90;;;;;;4984798;28;20222;-83
2022/03/10 01:03:40;;;;;;;10.37;7.97;;;5.00;99.90;;;;;;4986709;28;20215;-86
2022/03/10 01:06:08;;;;;;;11.37;8.40;;;5.00;99.90;;;;;;4988362;28;20205;-87
2022/03/10 01:08:36;;;;;;;10.30;7.90;;;5.00;99.90;;;;;;4989549;28;20206;-85
2022/03/10 01:11:06;;;;;;;10.27;8.07;;;4.90;99.90;;;;;;4992071;28;20794;-86
2022/03/10 01:13:33;;;;;;;8.63;7.83;;;4.90;99.90;;;;;;4991332;28;20265;-85
2022/03/10 01:15:59;;;;;;;11.23;8.13;;;4.80;99.90;;;;;;4990155;28;20664;-85
2022/03/10 01:18:26;;;;;;;12.03;8.53;;;4.90;99.90;;;;;;4990488;28;20209;-85
2022/03/10 01:20:53;;;;;;;11.20;8.47;;;4.80;99.90;;;;;;4990813;28;20214;-85
2022/03/10 01:23:21;;;;;;;12.97;8.50;;;4.80;99.90;;;;;;4988708;28;20206;-84
2022/03/10 01:25:48;;;;;;;9.00;8.10;;;4.80;99.90;;;;;;4987968;28;20623;-85
2022/03/10 01:28:14;;;;;;;9.67;8.60;;;4.80;99.90;;;;;;4988850;28;20248;-83
2022/03/10 01:30:42;;;;;;;12.50;9.20;;;4.80;99.90;;;;;;4988790;28;20263;-84
2022/03/10 01:33:09;;;;;;;13.60;8.73;;;4.70;99.90;;;;;;5005926;28;20203;-84
2022/03/10 01:35:36;;;;;;;11.37;9.20;;;4.70;99.90;;;;;;5090887;28;20595;-84
2022/03/10 01:38:03;;;;;;;14.53;9.67;;;4.60;99.90;;;;;;5058869;28;20683;-84
2022/03/10 01:40:31;;;;;;;11.33;9.03;;;4.60;99.90;;;;;;4988478;28;20736;-85
2022/03/10 01:42:57;;;;;;;12.63;9.87;;;4.60;99.90;;;;;;4987842;28;20210;-84
2022/03/10 01:45:24;;;;;;;12.83;10.23;;;4.60;99.90;;;;;;4999068;28;20262;-84
2022/03/10 01:47:51;;;;;;;13.40;9.43;;;4.60;99.90;;;;;;4997186;28;20210;-84
2022/03/10 01:50:18;;;;;;;12.80;9.43;;;4.60;99.90;;;;;;4989178;28;20212;-84
2022/03/10 01:52:47;;;;;;;13.97;9.10;;;4.60;99.90;;;;;;4979707;28;20215;-83
2022/03/10 01:55:13;;;;;;;11.93;9.13;;;4.60;99.90;;;;;;4968291;28;20287;-82
2022/03/10 01:57:43;;;;;;;11.63;8.40;;;4.60;99.90;;;;;;4968530;28;20264;-85
2022/03/10 02:00:11;;;;;;;11.50;8.67;;;4.60;99.90;;;;;;4968857;28;20223;-84
2022/03/10 02:02:39;;;;;;;14.50;9.60;;;4.50;99.90;;;;;;4967821;28;20213;-84
2022/03/10 02:05:06;;;;;;;16.17;9.70;;;4.40;99.90;;;;;;4967806;28;20206;-84
2022/03/10 02:10:17;;;;;;;13.47;9.07;;;4.40;99.90;;;;;;4986016;28;20209;-83
2022/03/10 02:12:46;;;;;;;12.20;9.20;;;4.40;99.90;;;;;;4986402;28;20320;-83
2022/03/10 02:18:02;;;;;;;11.77;9.70;;;4.40;99.90;;;;;;5006582;28;20216;-80
2022/03/10 02:20:29;;;;;;;10.27;9.07;;;4.40;99.90;;;;;;4997349;28;20206;-79
2022/03/10 02:22:58;;;;;;;11.80;9.10;;;4.40;99.90;;;;;;4985836;28;20210;-80
2022/03/10 02:25:26;;;;;;;12.73;9.23;;;4.30;99.90;;;;;;4987081;28;20267;-80
2022/03/10 02:27:55;;;;;;;12.40;9.60;;;4.30;99.90;;;;;;4988364;28;20274;-86
2022/03/10 02:30:23;;;;;;;11.33;8.40;;;4.30;99.90;;;;;;4978055;28;20211;-86
2022/03/10 02:32:50;;;;;;;11.80;9.67;;;4.20;99.90;;;;;;4975225;28;20222;-87
2022/03/10 02:35:17;;;;;;;12.40;9.20;;;4.20;99.90;;;;;;4991527;28;20271;-86
2022/03/10 02:37:45;;;;;;;11.93;9.43;;;4.20;99.90;;;;;;4991892;28;20214;-88
2022/03/10 02:40:13;;;;;;;11.73;9.87;;;4.20;99.90;;;;;;4991072;28;20206;-86
2022/03/10 02:42:40;;;;;;;13.33;9.67;;;4.20;99.90;;;;;;4989129;28;20217;-87
2022/03/10 02:45:09;;;;;;;12.53;9.73;;;4.20;99.90;;;;;;4991429;28;20264;-85
2022/03/10 02:47:36;;;;;;;12.60;9.70;;;4.10;99.90;;;;;;4989895;28;20661;-84
2022/03/10 02:50:06;;;;;;;13.20;9.67;;;4.10;99.90;;;;;;4987491;28;20408;-84
2022/03/10 02:52:33;;;;;;;13.03;8.90;;;4.10;99.90;;;;;;4984187;28;20701;-83
2022/03/10 02:55:00;;;;;;;15.00;10.07;;;4.20;99.90;;;;;;4970874;28;20241;-84
2022/03/10 02:57:29;;;;;;;14.20;9.07;;;4.20;99.90;;;;;;4968737;28;20254;-84
2022/03/10 02:59:55;;;;;;;13.40;10.10;;;4.10;99.90;;;;;;4969835;28;20231;-84
2022/03/10 03:02:22;;;;;;;14.97;10.13;;;4.10;99.90;;;;;;4967640;28;20207;-81
2022/03/10 03:04:48;;;;;;;11.23;9.27;;;4.10;99.90;;;;;;4966102;28;20739;-82
2022/03/10 03:07:15;;;;;;;13.93;10.03;;;4.10;99.90;;;;;;4966265;28;20210;-85
2022/03/10 03:09:42;;;;;;;12.87;9.47;;;4.10;99.90;;;;;;4970566;28;20215;-82
2022/03/10 03:12:08;;;;;;;15.77;10.03;;;4.10;99.90;;;;;;4985702;28;20641;-82
2022/03/10 03:14:36;;;;;;;13.90;10.50;;;4.10;99.90;;;;;;4989934;28;20585;-83
2022/03/10 03:17:04;;;;;;;12.80;9.97;;;4.10;99.90;;;;;;5004333;28;20213;-83
2022/03/10 03:19:30;;;;;;;13.93;9.80;;;4.10;99.90;;;;;;4986091;28;20692;-87
2022/03/10 03:21:57;;;;;;;14.20;10.17;;;4.10;99.90;;;;;;4987800;28;20210;-84
2022/03/10 03:24:24;;;;;;;14.17;10.00;;;4.00;99.90;;;;;;4994248;28;20301;-86
2022/03/10 03:26:50;;;;;;;15.47;10.53;;;4.00;99.90;;;;;;4992687;28;20246;-86
2022/03/10 03:29:18;;;;;;;14.83;10.03;;;3.80;99.90;;;;;;4984926;28;20210;-85
2022/03/10 03:31:46;;;;;;;15.20;10.33;;;4.00;99.90;;;;;;4984904;28;20676;-85
2022/03/10 03:34:13;;;;;;;16.50;10.70;;;4.00;99.90;;;;;;4985477;28;20210;-85
2022/03/10 03:36:40;;;;;;;15.40;10.53;;;4.00;99.90;;;;;;4987596;28;20993;-84
2022/03/10 03:39:07;;;;;;;14.43;10.23;;;4.00;99.90;;;;;;4984256;28;20217;-84
2022/03/10 03:41:34;;;;;;;17.57;11.13;;;4.10;99.90;;;;;;4987763;28;20213;-84
2022/03/10 03:44:01;;;;;;;13.80;10.23;;;4.10;99.90;;;;;;4988004;28;20216;-84
2022/03/10 03:46:28;;;;;;;16.97;11.20;;;4.10;99.90;;;;;;5072675;28;20202;-85
2022/03/10 03:48:56;;;;;;;14.83;10.87;;;3.90;99.90;;;;;;5090440;28;20211;-84
2022/03/10 03:51:23;;;;;;;16.07;11.43;;;4.00;99.90;;;;;;5089938;28;20272;-84
2022/03/10 03:53:50;;;;;;;15.53;11.13;;;4.00;99.90;;;;;;5089414;28;20624;-85
2022/03/10 03:56:17;;;;;;;17.53;12.20;;;4.00;99.90;;;;;;5088430;28;20291;-76
2022/03/10 03:58:43;;;;;;;16.83;12.97;;;4.10;99.90;;;;;;5049526;28;20222;-84
2022/03/10 04:01:10;;;;;;;17.60;12.10;;;4.20;99.90;;;;;;4987998;28;20749;-85
2022/03/10 04:03:37;;;;;;;18.73;12.40;;;4.20;99.90;;;;;;4985551;28;20217;-84
2022/03/10 04:06:08;;;;;;;17.13;12.43;;;4.30;99.90;;;;;;4986141;28;20214;-84
2022/03/10 04:08:35;;;;;;;18.67;12.17;;;4.40;99.90;;;;;;4986576;28;20218;-84
2022/03/10 04:11:05;;;;;;;16.67;11.83;;;4.50;99.90;;;;;;4986852;28;20263;-84
2022/03/10 04:13:32;;;;;;;17.97;12.50;;;4.50;99.90;;;;;;4989564;28;20712;-84
2022/03/10 04:15:58;;;;;;;17.77;12.27;;;4.60;99.90;;;;;;5006353;28;20310;-84
2022/03/10 04:18:25;;;;;;;16.00;11.70;;;4.70;99.90;;;;;;5006809;28;20266;-84
2022/03/10 04:20:52;;;;;;;18.97;12.07;;;4.80;99.90;;;;;;4995414;28;20762;-84
2022/03/10 04:23:20;;;;;;;15.20;11.33;;;4.90;99.90;;;;;;4986742;28;20306;-83
2022/03/10 04:25:46;;;;;;;16.00;11.60;;;4.90;99.90;;;;;;4986650;28;20213;-84
2022/03/10 04:28:13;;;;;;;19.83;12.33;;;4.90;99.90;;;;;;4986727;28;20236;-84
2022/03/10 04:30:41;;;;;;;17.67;12.57;;;4.90;99.90;;;;;;4986622;28;20220;-84
2022/03/10 04:33:07;;;;;;;18.13;11.77;;;4.90;99.90;;;;;;4986259;28;20574;-84
2022/03/10 04:35:34;;;;;;;16.40;11.87;;;5.00;99.90;;;;;;4986541;28;20238;-84
2022/03/10 04:38:01;;;;;;;20.70;12.37;;;5.00;99.90;;;;;;4986588;28;20664;-85
2022/03/10 04:40:29;;;;;;;16.03;11.53;;;5.00;99.90;;;;;;5063277;28;20688;-85
2022/03/10 04:42:56;;;;;;;16.50;11.70;;;5.00;99.90;;;;;;4987858;28;20206;-85
2022/03/10 04:45:23;;;;;;;19.07;11.73;;;5.00;99.90;;;;;;4989919;28;20214;-85
2022/03/10 04:47:50;;;;;;;19.70;11.47;;;5.00;99.90;;;;;;4989685;28;20263;-84
2022/03/10 04:50:18;;;;;;;19.53;12.53;;;5.00;99.90;;;;;;4989885;28;20210;-85
2022/03/10 04:52:45;;;;;;;16.53;11.70;;;4.90;99.90;;;;;;4989459;28;20214;-85
2022/03/10 04:55:13;;;;;;;19.77;13.10;;;5.00;99.90;;;;;;4989346;28;20222;-84
2022/03/10 04:57:42;;;;;;;19.30;12.57;;;4.90;99.90;;;;;;4989219;28;20215;-85
2022/03/10 05:00:11;;;;;;;17.23;12.23;;;4.90;99.90;;;;;;4994585;28;20325;-85
2022/03/10 05:02:39;;;;;;;19.43;12.80;;;4.90;99.90;;;;;;5008571;28;20209;-85
2022/03/10 05:05:07;;;;;;;18.10;11.90;;;4.90;99.90;;;;;;5009013;28;20206;-85
2022/03/10 05:07:33;;;;;;;18.00;12.30;;;4.90;99.90;;;;;;5009159;28;20209;-85
2022/03/10 05:10:00;;;;;;;20.13;11.97;;;4.90;99.90;;;;;;5026387;28;20199;-83
2022/03/10 05:12:27;;;;;;;18.23;12.10;;;4.80;99.90;;;;;;5092376;28;20207;-85
2022/03/10 05:14:55;;;;;;;20.23;12.83;;;4.80;99.90;;;;;;5057681;28;20210;-84
2022/03/10 05:17:23;;;;;;;19.47;12.23;;;4.80;99.90;;;;;;5005048;28;20339;-84
2022/03/10 05:19:50;;;;;;;17.93;12.00;;;4.80;99.90;;;;;;4989079;28;20558;-85
2022/03/10 05:22:17;;;;;;;17.17;12.20;;;4.90;99.90;;;;;;4989503;28;20263;-83
2022/03/10 05:24:44;;;;;;;18.10;12.23;;;4.90;99.90;;;;;;4988999;28;20738;-85
2022/03/10 05:27:10;;;;;;;19.93;12.37;;;4.90;99.90;;;;;;4989512;28;21074;-84
2022/03/10 05:29:40;;;;;;;17.53;11.47;;;4.90;99.90;;;;;;4989240;28;20247;-84
2022/03/10 05:32:09;;;;;;;17.57;12.07;;;4.80;99.90;;;;;;4989048;28;20206;-85
2022/03/10 05:34:35;;;;;;;18.10;12.50;;;4.90;99.90;;;;;;4989245;28;20304;-85
2022/03/10 05:37:02;;;;;;;23.37;13.03;;;4.80;99.90;;;;;;4988984;28;20284;-84
2022/03/10 05:39:29;;;;;;;19.10;12.10;;;4.80;99.90;;;;;;4988716;28;20275;-85
2022/03/10 05:41:56;;;;;;;18.23;11.87;;;4.80;99.90;;;;;;4988533;28;20570;-86
2022/03/10 05:44:22;;;;;;;18.03;12.53;;;4.80;99.90;;;;;;4991299;28;20214;-86
2022/03/10 05:46:49;;;;;;;17.80;12.90;;;4.70;99.90;;;;;;5008115;28;20220;-86
2022/03/10 05:49:17;;;;;;;18.90;13.47;;;4.70;99.90;;;;;;5008657;28;20217;-86
2022/03/10 05:51:44;;;;;;;18.97;12.53;;;4.70;99.90;;;;;;5008121;28;20206;-85
2022/03/10 05:54:10;;;;;;;18.73;13.07;;;4.70;99.90;;;;;;4988639;28;20280;-84
2022/03/10 05:56:37;;;;;;;20.80;12.90;;;4.70;99.90;;;;;;4988728;28;20246;-86
2022/03/10 05:59:04;;;;;;;20.30;12.60;;;4.60;99.90;;;;;;4988663;28;20230;-85
2022/03/10 06:01:30;;;;;;;20.70;13.17;;;4.60;99.90;;;;;;4988934;28;20214;-85
2022/03/10 06:03:57;;;;;;;17.50;12.57;;;4.60;99.90;;;;;;4985930;28;20203;-85
2022/03/10 06:06:25;;;;;;;19.33;13.03;;;4.50;99.90;;;;;;4988770;28;20211;-85
2022/03/10 06:08:52;;;;;;;18.67;12.53;;;4.60;99.90;;;;;;4988386;28;20210;-86
2022/03/10 06:11:19;;;;;;;18.80;11.80;;;4.50;99.90;;;;;;4988939;28;20263;-85
2022/03/10 06:13:45;;;;;;;19.20;12.73;;;4.60;99.90;;;;;;4988644;28;20214;-84
2022/03/10 06:16:12;;;;;;;18.90;12.87;;;4.60;99.90;;;;;;5005419;28;20248;-84
2022/03/10 06:18:39;;;;;;;18.97;12.00;;;4.60;99.90;;;;;;5008133;28;20205;-85
2022/03/10 06:21:05;;;;;;;19.93;13.30;;;4.70;99.90;;;;;;4995314;28;20287;-86
2022/03/10 06:23:33;;;;;;;32.53;13.87;;;4.60;99.90;;;;;;4989031;28;20206;-86
2022/03/10 06:26:00;;;;;;;26.57;14.43;;;4.70;99.90;;;;;;4988570;28;20252;-84
2022/03/10 06:28:29;;;;;;;22.33;13.53;;;4.60;99.90;;;;;;4988740;28;20219;-84
2022/03/10 06:30:56;;;;;;;23.27;13.20;;;4.60;99.90;;;;;;4988480;28;20301;-85
2022/03/10 06:33:23;;;;;;;23.57;12.90;;;4.60;99.90;;;;;;4994670;28;20298;-86
2022/03/10 06:35:50;;;;;;;19.93;12.93;;;4.50;99.90;;;;;;5007943;28;20233;-85
2022/03/10 06:38:16;;;;;;;18.33;13.40;;;4.60;99.90;;;;;;5007993;28;20550;-85
2022/03/10 06:40:44;;;;;;;19.37;13.10;;;4.60;99.90;;;;;;4970018;28;20665;-85
2022/03/10 06:43:11;;;;;;;20.23;12.77;;;4.60;99.90;;;;;;4987881;28;20206;-84
2022/03/10 06:45:38;;;;;;;18.67;13.53;;;4.70;99.90;;;;;;5057628;28;20214;-85
2022/03/10 06:48:05;;;;;;;20.90;13.33;;;4.70;99.90;;;;;;5040469;28;20621;-85
2022/03/10 06:50:32;;;;;;;20.83;13.57;;;4.80;99.90;;;;;;5007653;28;20218;-85
2022/03/10 06:52:58;;;;;;;20.53;13.50;;;4.80;99.90;;;;;;5007236;28;20209;-86
2022/03/10 06:55:26;;;;;;;20.93;14.40;;;4.90;99.90;;;;;;5007230;28;20214;-86
2022/03/10 06:57:55;;;;;;;19.30;13.23;;;5.00;99.90;;;;;;5007365;28;20210;-85
2022/03/10 07:00:22;;;;;;;17.57;12.83;;;5.00;99.90;;;;;;5006411;28;20230;-84
2022/03/10 07:02:49;;;;;;;20.63;13.20;;;5.10;99.90;;;;;;5007877;28;20206;-86
2022/03/10 07:05:16;;;;;;;18.83;12.83;;;5.20;99.90;;;;;;5007923;28;20213;-85
2022/03/10 07:07:43;;;;;;;19.10;13.23;;;5.20;99.90;;;;;;4991874;28;20242;-85
2022/03/10 07:10:12;;;;;;;20.57;13.33;;;5.20;99.90;;;;;;4988287;28;20662;-85
2022/03/10 07:12:40;;;;;;;20.00;13.57;;;5.30;99.90;;;;;;4968948;28;20242;-86
2022/03/10 07:15:11;;;;;;;17.33;13.00;;;5.30;99.90;;;;;;4968381;28;20234;-86
2022/03/10 07:17:37;;;;;;;22.43;13.70;;;5.40;99.90;;;;;;4968794;28;20235;-86
2022/03/10 07:20:05;;;;;;;22.00;13.83;;;5.40;99.90;;;;;;4968361;28;20319;-86
2022/03/10 07:22:32;;;;;;;19.93;13.50;;;5.50;99.90;;;;;;4969121;28;20210;-85
2022/03/10 07:24:58;;;;;;;19.77;13.60;;;5.50;99.90;;;;;;4968903;28;20207;-84
2022/03/10 07:27:25;;;;;;;20.23;13.37;;;5.60;99.90;;;;;;4969153;28;20214;-85
2022/03/10 07:29:52;;;;;;;18.47;13.10;;;5.60;99.90;;;;;;4968372;28;20223;-85
2022/03/10 07:32:20;;;;;;;18.20;12.23;;;5.70;99.90;;;;;;4969416;28;20566;-85
2022/03/10 07:34:47;;;;;;;21.23;13.67;;;5.80;99.90;;;;;;4968633;28;20211;-85
2022/03/10 07:37:14;;;;;;;22.30;13.90;;;5.90;99.90;;;;;;4968672;28;20238;-85
2022/03/10 07:39:41;;;;;;;21.00;13.00;;;6.00;99.90;;;;;;4979228;28;20306;-86
2022/03/10 07:42:08;;;;;;;19.60;13.23;;;6.10;99.90;;;;;;4987458;28;20237;-85
2022/03/10 07:44:35;;;;;;;20.63;12.83;;;6.20;99.90;;;;;;4992067;28;20266;-85
2022/03/10 07:47:02;;;;;;;16.53;13.00;;;6.20;99.90;;;;;;5006899;28;20277;-84
2022/03/10 07:49:30;;;;;;;17.50;12.70;;;6.30;99.90;;;;;;5007339;28;20209;-86
2022/03/10 07:51:57;;;;;;;18.50;13.97;;;6.30;99.90;;;;;;5007054;28;20256;-86
2022/03/10 07:54:25;;;;;;;19.90;14.03;;;6.30;99.90;;;;;;5007388;28;20274;-86
2022/03/10 07:56:52;;;;;;;21.17;13.13;;;6.40;99.90;;;;;;5006769;28;20237;-86
2022/03/10 07:59:18;;;;;;;18.93;13.50;;;6.50;99.90;;;;;;4998510;28;20597;-86
2022/03/10 08:01:45;;;;;;;19.37;12.90;;;6.60;99.90;;;;;;4987750;28;20209;-87
2022/03/10 08:04:12;;;;;;;20.70;13.43;;;6.60;99.90;;;;;;4988010;28;20210;-86
2022/03/10 08:06:40;;;;;;;22.33;13.50;;;6.60;99.90;;;;;;4994845;28;20214;-85
2022/03/10 08:09:07;;;;;;;18.53;13.80;;;6.60;99.90;;;;;;5090160;28;20210;-86
2022/03/10 08:11:34;;;;;;;21.93;13.47;;;6.70;99.90;;;;;;5090195;28;20207;-85
2022/03/10 08:14:00;;;;;;;21.23;14.07;;;6.80;99.90;;;;;;5088425;28;20783;-86
2022/03/10 08:16:27;;;;;;;19.90;13.37;;;6.90;99.90;;;;;;5007359;28;20233;-84
2022/03/10 08:18:54;;;;;;;20.30;12.97;;;6.90;99.90;;;;;;5013289;28;20213;-86
2022/03/10 08:21:20;;;;;;;21.37;13.73;;;6.90;99.90;;;;;;5013521;28;20671;-87
2022/03/10 08:23:48;;;;;;;18.87;12.83;;;7.00;99.90;;;;;;5013553;28;20213;-85
2022/03/10 08:26:15;;;;;;;21.63;13.80;;;7.10;99.90;;;;;;5013140;28;20206;-87
2022/03/10 08:28:42;;;;;;;22.13;13.13;;;7.20;99.90;;;;;;5013139;28;20231;-87
2022/03/10 08:31:10;;;;;;;19.37;12.37;;;7.20;99.90;;;;;;5013087;28;20278;-86
2022/03/10 08:33:37;;;;;;;19.33;12.53;;;7.30;99.90;;;;;;5013076;28;20235;-86
2022/03/10 08:36:07;;;;;;;21.17;13.50;;;7.40;99.90;;;;;;5013106;28;20217;-85
2022/03/10 08:38:35;;;;;;;19.57;13.37;;;7.50;99.90;;;;;;5012993;28;20266;-87
2022/03/10 08:41:06;;;;;;;17.30;12.33;;;7.50;99.90;;;;;;5009170;28;20217;-86
2022/03/10 08:43:33;;;;;;;17.40;12.30;;;7.60;99.90;;;;;;4993659;28;20202;-86
2022/03/10 08:46:05;;;;;;;17.93;12.83;;;7.70;99.90;;;;;;4976929;28;20677;-87
2022/03/10 08:48:32;;;;;;;20.67;13.43;;;7.70;99.90;;;;;;4974105;28;20744;-86
2022/03/10 08:51:00;;;;;;;19.63;13.50;;;7.80;99.90;;;;;;4973948;28;20203;-87
2022/03/10 08:53:27;;;;;;;18.87;13.60;;;7.90;99.90;;;;;;4974087;28;20243;-85
2022/03/10 08:55:54;;;;;;;19.53;13.07;;;7.90;99.90;;;;;;4973824;28;20717;-86
2022/03/10 08:58:22;;;;;;;18.13;12.00;;;8.00;99.90;;;;;;4974766;28;20243;-85
2022/03/10 09:00:48;;;;;;;16.53;12.30;;;8.00;99.90;;;;;;4993377;28;20218;-85
2022/03/10 09:03:15;;;;;;;18.60;12.80;;;8.00;99.90;;;;;;5015409;28;20229;-86
2022/03/10 09:05:42;;;;;;;17.07;12.97;;;8.20;99.90;;;;;;5096012;28;20210;-86
2022/03/10 09:08:10;;;;;;;17.97;11.90;;;8.20;99.90;;;;;;5096053;28;20302;-85
2022/03/10 09:10:37;;;;;;;16.57;12.10;;;8.30;99.90;;;;;;5042601;28;20270;-85
2022/03/10 09:13:05;;;;;;;19.67;13.60;;;8.40;99.90;;;;;;4993268;28;20210;-85
2022/03/10 09:15:35;;;;;;;20.03;13.27;;;8.60;99.90;;;;;;4993039;28;20876;-84
2022/03/10 09:18:02;;;;;;;20.60;13.23;;;8.60;99.90;;;;;;4993347;28;20237;-85
2022/03/10 09:20:29;;;;;;;17.63;13.23;;;8.60;99.90;;;;;;4993175;28;20209;-86
2022/03/10 09:22:56;;;;;;;18.87;13.10;;;8.80;99.90;;;;;;4992845;28;20222;-86
2022/03/10 09:25:23;;;;;;;16.37;11.47;;;8.80;99.90;;;;;;4993239;28;20257;-85
2022/03/10 09:27:49;;;;;;;16.47;12.70;;;8.90;99.90;;;;;;4992784;28;20677;-84
2022/03/10 09:30:16;;;;;;;17.70;13.00;;;8.90;99.90;;;;;;4988667;28;20214;-84
2022/03/10 09:32:44;;;;;;;18.23;12.63;;;9.10;99.90;;;;;;4989590;28;20214;-85
2022/03/10 09:35:14;;;;;;;21.27;12.93;;;9.10;99.90;;;;;;4990085;28;20210;-85
2022/03/10 09:37:41;;;;;;;14.73;11.43;;;9.10;99.90;;;;;;4989750;28;20234;-85
2022/03/10 09:40:10;;;;;;;17.60;13.00;;;9.20;99.90;;;;;;4989744;28;20260;-84
2022/03/10 09:42:37;;;;;;;17.10;12.63;;;9.30;99.90;;;;;;4989109;28;20210;-86
2022/03/10 09:45:07;;;;;;;17.53;11.87;;;9.40;99.90;;;;;;4997353;28;20210;-85
2022/03/10 09:47:35;;;;;;;16.97;12.23;;;9.60;99.90;;;;;;5009208;28;20204;-85
2022/03/10 09:50:05;;;;;;;21.13;12.90;;;9.60;99.90;;;;;;5009012;28;20592;-85
2022/03/10 09:52:32;;;;;;;17.40;12.73;;;9.70;99.90;;;;;;4994607;28;20555;-85
2022/03/10 09:54:59;;;;;;;18.77;12.90;;;9.70;99.90;;;;;;4989544;28;20221;-85
2022/03/10 09:57:26;;;;;;;18.57;13.33;;;9.80;99.90;;;;;;5003664;28;20310;-84
2022/03/10 09:59:54;;;;;;;19.77;13.67;;;9.90;99.90;;;;;;5000202;28;20276;-86
2022/03/10 10:02:21;;;;;;;20.00;13.40;;;10.00;99.90;;;;;;4989502;28;20267;-86
2022/03/10 10:04:48;;;;;;;16.53;12.63;;;9.90;99.90;;;;;;4989173;28;20210;-86
2022/03/10 10:07:21;;;;;;;21.40;12.93;;;10.00;99.90;;;;;;4976178;28;20238;-87
2022/03/10 10:09:51;;;;;;;17.73;11.77;;;10.00;99.90;;;;;;4969810;28;20206;-86
2022/03/10 10:12:22;;;;;;;16.23;11.93;;;10.10;99.90;;;;;;4970258;28;20577;-86
2022/03/10 10:14:49;;;;;;;14.83;11.33;;;10.30;99.90;;;;;;4982833;28;20217;-87
2022/03/10 10:17:16;;;;;;;16.53;11.80;;;10.30;99.90;;;;;;5008638;28;20234;-86
2022/03/10 10:19:44;;;;;;;14.23;11.17;;;10.30;99.90;;;;;;5008502;28;20210;-86
2022/03/10 10:22:19;;;;;;;15.77;10.77;;;10.40;99.90;;;;;;4993314;28;20216;-86
2022/03/10 10:24:50;;;;;;;12.90;10.33;;;10.50;99.90;;;;;;4989097;28;20202;-87
2022/03/10 10:27:18;;;;;;;13.57;10.57;;;10.60;99.90;;;;;;4988785;28;20285;-85
2022/03/10 10:29:50;;;;;;;14.13;10.07;;;10.60;99.90;;;;;;4988518;28;20736;-87
2022/03/10 10:32:30;;;;;;;14.73;10.37;;;10.50;99.90;;;;;;4988931;28;20207;-86
2022/03/10 10:35:06;;;;;;;14.53;10.50;;;10.60;99.90;;;;;;4988534;28;20985;-87
2022/03/10 10:37:35;;;;;;;14.43;11.53;;;10.70;99.90;;;;;;4988194;28;20346;-87
2022/03/10 10:40:03;;;;;;;15.83;11.90;;;10.80;99.90;;;;;;5001621;28;20267;-86
2022/03/10 10:42:31;;;;;;;14.90;11.07;;;10.80;99.90;;;;;;5008229;28;20220;-86
2022/03/10 10:45:00;;;;;;;18.43;12.10;;;10.70;99.90;;;;;;5007508;28;20217;-86
2022/03/10 10:47:27;;;;;;;17.23;12.27;;;10.90;99.90;;;;;;5008156;28;20216;-87
2022/03/10 10:50:01;;;;;;;18.07;13.13;;;11.10;99.90;;;;;;5007778;28;20304;-86
2022/03/10 10:52:40;;;;;;;17.77;11.67;;;11.00;99.90;;;;;;4994152;28;20217;-86
2022/03/10 10:55:10;;;;;;;12.60;10.00;;;11.00;99.90;;;;;;4987765;28;20214;-86
2022/03/10 10:57:38;;;;;;;10.33;8.20;;;11.10;99.90;;;;;;4987798;28;20302;-86
2022/03/10 11:00:13;;;;;;;11.77;9.70;;;11.20;99.90;;;;;;4987698;28;20207;-85
2022/03/10 11:02:44;;;;;;;17.93;11.80;;;11.30;99.90;;;;;;4987998;28;20202;-87
2022/03/10 11:05:14;;;;;;;16.83;12.13;;;11.30;99.90;;;;;;4968960;28;20203;-85
2022/03/10 11:07:43;;;;;;;15.67;12.03;;;11.20;99.90;;;;;;4968658;28;20249;-86
2022/03/10 11:10:11;;;;;;;13.90;11.27;;;11.00;99.90;;;;;;4968827;28;20207;-86
2022/03/10 11:12:40;;;;;;;14.57;11.60;;;10.80;99.90;;;;;;4968571;28;20239;-85
2022/03/10 11:15:08;;;;;;;13.87;11.17;;;10.60;99.90;;;;;;4986221;28;20732;-86
2022/03/10 11:17:35;;;;;;;14.60;11.37;;;10.50;99.90;;;;;;4999121;28;20309;-85
2022/03/10 11:20:04;;;;;;;12.93;10.57;;;10.40;99.90;;;;;;4987880;28;20343;-87
2022/03/10 11:22:39;;;;;;;14.07;11.20;;;10.30;99.90;;;;;;4987844;28;20210;-85
2022/03/10 11:25:34;;;;;;;12.50;10.70;;;10.30;99.90;;;;;;4987933;28;20251;-87
2022/03/10 11:28:04;;;;;;;17.37;11.17;;;10.20;99.90;;;;;;4988012;28;20247;-86
2022/03/10 11:30:33;;;;;;;15.03;12.03;;;10.20;99.90;;;;;;4987513;28;20210;-86
2022/03/10 11:33:03;;;;;;;13.07;11.20;;;10.20;99.90;;;;;;4987658;28;20210;-86
2022/03/10 11:35:32;;;;;;;15.13;10.90;;;10.20;99.90;;;;;;4987391;28;20759;-87
2022/03/10 11:37:59;;;;;;;12.30;10.90;;;10.20;99.90;;;;;;4987379;28;20257;-85
2022/03/10 11:40:51;;;;;;;14.27;11.47;;;10.10;99.90;;;;;;5075761;28;20203;-85
2022/03/10 11:43:21;;;;;;;13.53;10.43;;;10.10;99.90;;;;;;5089908;28;20214;-87
2022/03/10 11:45:48;;;;;;;13.80;10.17;;;10.10;99.90;;;;;;5089173;28;20293;-86
2022/03/10 11:48:36;;;;;;;11.57;9.73;;;10.30;99.90;;;;;;5037795;28;20214;-86
2022/03/10 11:51:19;;;;;;;12.97;10.50;;;10.50;99.90;;;;;;4987663;28;20621;-86
2022/03/10 11:53:57;;;;;;;11.10;9.77;;;10.50;99.90;;;;;;4986709;28;20236;-87
2022/03/10 11:56:59;;;;;;;11.93;9.47;;;10.50;99.90;;;;;;4987113;28;20234;-85
2022/03/10 11:59:27;;;;;;;13.33;9.70;;;10.60;99.90;;;;;;4983611;28;20260;-85
2022/03/10 12:01:56;;;;;;;10.07;9.07;;;10.60;99.90;;;;;;4967967;28;20222;-86
2022/03/10 12:04:23;;;;;;;10.70;9.60;;;10.80;99.90;;;;;;4967726;28;20311;-85
2022/03/10 12:06:56;;;;;;;10.30;9.20;;;11.10;99.90;;;;;;4967524;28;20215;-85
2022/03/10 12:09:27;;;;;;;11.00;8.90;;;11.30;99.90;;;;;;4967188;28;20209;-85
2022/03/10 12:12:12;;;;;;;10.30;9.27;;;11.50;99.90;;;;;;4994926;28;20253;-85
2022/03/10 12:14:38;;;;;;;10.03;9.03;;;11.40;99.80;;;;;;4985860;28;20203;-85
2022/03/10 12:17:05;;;;;;;10.57;9.50;;;11.70;99.70;;;;;;4966813;28;20210;-85
2022/03/10 12:20:12;;;;;;;10.73;9.63;;;11.80;99.60;;;;;;4966831;28;20746;-85
2022/03/10 12:22:39;;;;;;;26.27;10.20;;;11.80;98.90;;;;;;4986282;28;20255;-85
2022/03/10 12:25:20;;;;;;;9.87;8.87;;;12.00;99.20;;;;;;4986172;28;20206;-85
2022/03/10 12:27:51;;;;;;;10.77;9.63;;;12.10;98.40;;;;;;4986105;28;20213;-83
2022/03/10 12:30:21;;;;;;;9.73;8.83;;;12.10;98.30;;;;;;4986126;28;20716;-85
2022/03/10 12:32:50;;;;;;;9.97;8.97;;;12.10;98.60;;;;;;4985427;28;20211;-84
2022/03/10 12:35:19;;;;;;;10.33;9.43;;;12.40;98.40;;;;;;4985937;28;20209;-84
2022/03/10 12:37:47;;;;;;;9.73;8.73;;;12.30;97.60;;;;;;4985766;28;20230;-83
2022/03/10 12:40:18;;;;;;;10.60;9.50;;;12.50;97.90;;;;;;4985712;28;20738;-84
2022/03/10 12:42:46;;;;;;;11.57;9.40;;;12.50;97.50;;;;;;4985678;28;20297;-84
2022/03/10 12:45:14;;;;;;;9.60;8.67;;;12.40;97.30;;;;;;4985526;28;20282;-84
2022/03/10 12:47:45;;;;;;;9.97;8.93;;;12.60;97.50;;;;;;4985314;28;20218;-85